Time;durP1;ratioP1;P1;durP2;ratioP2;P2;SDS_P1;SDS_P2;PMS_P1;PMS_P2;Temp;Humidity;BMP_temperature;BMP_pressure;BME280_temperature;BME280_humidity;BME280_pressure;Samples;Min_cycle;Max_cycle;Signal;HPM_P1;HPM_P2
2023/10/17 00:01:23;;;;;;;2.20;1.38;;;20.00;65.40;;;;;;6275743;22;46074;-58
2023/10/17 00:03:53;;;;;;;4.03;1.30;;;20.00;65.50;;;;;;6275806;22;45070;-58
2023/10/17 00:06:22;;;;;;;1.67;1.20;;;20.00;65.50;;;;;;6273780;22;45134;-58
2023/10/17 00:08:51;;;;;;;1.17;0.90;;;20.00;64.90;;;;;;6273307;22;45208;-58
2023/10/17 00:11:19;;;;;;;1.67;1.30;;;20.00;64.80;;;;;;6274084;22;45397;-58
2023/10/17 00:13:59;;;;;;;2.08;1.20;;;20.00;64.90;;;;;;6276321;22;45093;-58
2023/10/17 00:16:28;;;;;;;1.90;1.10;;;19.90;64.40;;;;;;6275686;22;45220;-57
2023/10/17 00:18:55;;;;;;;1.25;1.00;;;20.00;64.20;;;;;;6274282;22;45075;-58
2023/10/17 00:21:22;;;;;;;2.97;1.20;;;20.00;64.50;;;;;;6273877;22;46350;-58
2023/10/17 00:23:50;;;;;;;1.75;1.00;;;20.00;64.30;;;;;;6275810;22;45681;-57
2023/10/17 00:26:18;;;;;;;1.65;1.15;;;20.00;64.20;;;;;;6273741;22;44992;-57
2023/10/17 00:28:45;;;;;;;2.20;1.20;;;20.00;64.20;;;;;;6275706;22;45097;-58
2023/10/17 00:31:12;;;;;;;2.78;1.15;;;20.00;64.10;;;;;;6275626;22;46480;-58
2023/10/17 00:33:41;;;;;;;1.90;1.15;;;19.90;64.00;;;;;;6275559;22;45035;-57
2023/10/17 00:36:14;;;;;;;2.63;1.45;;;19.90;64.00;;;;;;6273933;22;45271;-58
2023/10/17 00:38:43;;;;;;;1.95;1.13;;;19.90;63.90;;;;;;6275743;22;45057;-57
2023/10/17 00:41:17;;;;;;;2.55;1.48;;;19.90;63.80;;;;;;6271517;22;47689;-57
2023/10/17 00:43:44;;;;;;;1.70;1.30;;;19.90;63.70;;;;;;6274341;22;45298;-57
2023/10/17 00:46:10;;;;;;;2.17;1.35;;;20.00;63.70;;;;;;6270629;22;45130;-58
2023/10/17 00:48:38;;;;;;;2.45;1.48;;;19.90;63.60;;;;;;6275210;22;45072;-57
2023/10/17 00:51:10;;;;;;;1.55;1.05;;;19.90;63.60;;;;;;6274158;22;46949;-58
2023/10/17 00:53:40;;;;;;;2.83;1.40;;;20.00;63.50;;;;;;6275862;22;45923;-58
2023/10/17 00:56:08;;;;;;;2.05;1.27;;;19.90;63.20;;;;;;6273746;22;45153;-58
2023/10/17 00:58:35;;;;;;;2.60;1.30;;;20.00;63.10;;;;;;6274492;22;45492;-58
2023/10/17 01:01:14;;;;;;;1.92;1.15;;;20.00;62.80;;;;;;6273117;22;45130;-57
2023/10/17 01:03:43;;;;;;;2.10;1.02;;;19.90;63.60;;;;;;6275657;22;45078;-57
2023/10/17 01:06:23;;;;;;;2.13;1.00;;;20.00;62.40;;;;;;6273396;22;45132;-57
2023/10/17 01:08:51;;;;;;;3.60;1.35;;;20.00;62.50;;;;;;6276363;22;45074;-58
2023/10/17 01:11:21;;;;;;;1.50;1.20;;;20.00;62.20;;;;;;6274074;22;45126;-58
2023/10/17 01:13:51;;;;;;;1.98;1.38;;;20.00;62.10;;;;;;6276475;22;45054;-57
2023/10/17 01:16:18;;;;;;;1.83;1.00;;;20.00;61.90;;;;;;6274740;22;45178;-57
2023/10/17 01:18:45;;;;;;;2.03;1.42;;;19.90;61.70;;;;;;6276782;22;45127;-57
2023/10/17 01:21:15;;;;;;;1.63;1.00;;;19.90;61.70;;;;;;6274022;22;45131;-58
2023/10/17 01:23:42;;;;;;;1.10;0.90;;;19.90;61.70;;;;;;6276843;22;45118;-58
2023/10/17 01:26:14;;;;;;;1.17;0.90;;;19.90;61.80;;;;;;6276280;22;44639;-57
2023/10/17 01:28:47;;;;;;;1.58;1.05;;;19.90;61.50;;;;;;6274968;22;45117;-57
2023/10/17 01:31:16;;;;;;;2.75;1.00;;;19.90;61.50;;;;;;6276263;22;45037;-57
2023/10/17 01:33:43;;;;;;;2.30;1.40;;;19.90;61.20;;;;;;6276345;22;45188;-57
2023/10/17 01:36:12;;;;;;;1.80;1.10;;;19.90;61.20;;;;;;6274222;22;45070;-57
2023/10/17 01:38:42;;;;;;;1.52;1.20;;;19.90;61.50;;;;;;6276373;22;44827;-57
2023/10/17 01:41:11;;;;;;;2.00;1.05;;;19.90;61.60;;;;;;6272870;22;45276;-58
2023/10/17 01:43:40;;;;;;;2.20;1.30;;;19.90;61.40;;;;;;6274855;22;45263;-57
2023/10/17 01:46:09;;;;;;;1.25;0.90;;;19.90;61.40;;;;;;6272675;22;45293;-57
2023/10/17 01:48:36;;;;;;;1.27;0.82;;;19.90;61.70;;;;;;6276152;22;45186;-57
2023/10/17 01:51:07;;;;;;;1.70;0.98;;;19.90;61.60;;;;;;6276635;22;46935;-57
2023/10/17 01:53:35;;;;;;;1.48;1.00;;;19.90;61.50;;;;;;6275275;22;45041;-57
2023/10/17 01:56:13;;;;;;;1.88;1.13;;;19.90;61.50;;;;;;6274783;22;45169;-58
2023/10/17 01:58:46;;;;;;;1.35;0.88;;;19.90;61.50;;;;;;6276276;22;44771;-57
2023/10/17 02:01:14;;;;;;;1.45;1.17;;;19.90;61.50;;;;;;6276196;22;47587;-58
2023/10/17 02:03:41;;;;;;;2.28;0.90;;;19.90;61.50;;;;;;6276589;22;45774;-57
2023/10/17 02:06:14;;;;;;;1.33;0.82;;;19.90;61.40;;;;;;6276073;22;45133;-57
2023/10/17 02:08:42;;;;;;;2.25;1.13;;;19.90;61.40;;;;;;6276260;22;45224;-57
2023/10/17 02:11:12;;;;;;;1.85;0.80;;;19.90;61.40;;;;;;6276041;22;46537;-58
2023/10/17 02:13:45;;;;;;;1.00;0.80;;;19.90;61.50;;;;;;6276626;22;45012;-58
2023/10/17 02:16:13;;;;;;;1.33;1.10;;;19.90;61.30;;;;;;6275037;22;45070;-57
2023/10/17 02:18:40;;;;;;;2.60;1.13;;;19.90;61.40;;;;;;6274382;22;45058;-57
2023/10/17 02:21:07;;;;;;;1.50;0.90;;;19.90;61.30;;;;;;6274733;22;45150;-57
2023/10/17 02:23:43;;;;;;;1.40;1.00;;;19.90;61.40;;;;;;6276575;22;46016;-58
2023/10/17 02:26:10;;;;;;;0.90;0.73;;;19.90;61.20;;;;;;6275522;22;45237;-58
2023/10/17 02:28:46;;;;;;;0.90;0.70;;;19.90;61.50;;;;;;6274397;22;45360;-58
2023/10/17 02:31:15;;;;;;;1.23;1.00;;;19.90;61.20;;;;;;6275336;22;47844;-58
2023/10/17 02:33:43;;;;;;;2.00;0.80;;;19.90;61.50;;;;;;6276338;22;45039;-58
2023/10/17 02:36:13;;;;;;;1.40;0.90;;;19.90;61.30;;;;;;6276000;22;45148;-58
2023/10/17 02:38:40;;;;;;;1.45;1.05;;;19.90;61.20;;;;;;6276164;22;45007;-57
2023/10/17 02:41:12;;;;;;;2.15;0.90;;;19.90;61.20;;;;;;6275580;22;45090;-58
2023/10/17 02:43:40;;;;;;;0.73;0.63;;;19.90;61.30;;;;;;6276435;22;45121;-57
2023/10/17 02:46:07;;;;;;;1.35;0.85;;;19.90;61.20;;;;;;6275887;22;45059;-58
2023/10/17 02:48:42;;;;;;;2.30;0.90;;;19.80;61.00;;;;;;6275676;22;45228;-57
2023/10/17 02:51:30;;;;;;;0.85;0.70;;;19.90;61.00;;;;;;6273462;22;46497;-58
2023/10/17 02:53:58;;;;;;;1.05;0.85;;;19.90;60.80;;;;;;6276625;22;45034;-58
2023/10/17 02:56:26;;;;;;;1.00;0.80;;;19.90;60.80;;;;;;6274611;22;45027;-57
2023/10/17 02:59:06;;;;;;;1.58;0.82;;;19.80;60.50;;;;;;6274448;22;45062;-58
2023/10/17 03:01:33;;;;;;;2.10;1.00;;;19.90;60.70;;;;;;6275687;22;47069;-58
2023/10/17 03:04:07;;;;;;;2.15;0.90;;;19.90;60.70;;;;;;6273189;22;45038;-57
2023/10/17 03:06:37;;;;;;;1.67;0.90;;;19.90;60.70;;;;;;6274622;22;45011;-57
2023/10/17 03:09:15;;;;;;;0.70;0.70;;;19.90;60.50;;;;;;6274736;22;45091;-58
2023/10/17 03:11:50;;;;;;;1.48;0.80;;;19.90;60.50;;;;;;6274016;22;46098;-57
2023/10/17 03:14:22;;;;;;;1.40;0.85;;;19.90;60.40;;;;;;6276566;22;45091;-57
2023/10/17 03:16:53;;;;;;;1.80;0.80;;;19.90;60.50;;;;;;6273106;22;45253;-58
2023/10/17 03:19:25;;;;;;;1.35;0.80;;;19.90;60.50;;;;;;6275053;22;45030;-57
2023/10/17 03:21:54;;;;;;;1.35;0.88;;;19.90;60.40;;;;;;6275210;22;46700;-57
2023/10/17 03:24:24;;;;;;;1.10;0.80;;;19.90;60.50;;;;;;6274751;22;45142;-57
2023/10/17 03:27:03;;;;;;;1.63;0.82;;;19.90;61.50;;;;;;6273108;22;45092;-58
2023/10/17 03:29:34;;;;;;;1.80;0.70;;;19.90;60.20;;;;;;6274861;22;45166;-58
2023/10/17 03:32:03;;;;;;;2.00;0.63;;;19.90;60.10;;;;;;6275617;22;46512;-57
2023/10/17 03:34:35;;;;;;;1.25;0.65;;;19.90;60.00;;;;;;6274045;22;45074;-58
2023/10/17 03:37:27;;;;;;;1.15;0.63;;;19.90;59.80;;;;;;6273673;22;45453;-58
2023/10/17 03:39:52;;;;;;;1.75;0.70;;;19.90;60.00;;;;;;6276582;22;45308;-58
2023/10/17 03:42:43;;;;;;;1.20;0.70;;;19.90;59.80;;;;;;6272600;22;48140;-57
2023/10/17 03:45:15;;;;;;;1.98;0.90;;;19.90;59.60;;;;;;6276015;22;45123;-57
2023/10/17 03:47:44;;;;;;;1.27;0.63;;;19.90;59.50;;;;;;6274920;22;45213;-57
2023/10/17 03:50:22;;;;;;;2.80;0.80;;;19.90;59.20;;;;;;6274417;22;45030;-57
2023/10/17 03:52:49;;;;;;;1.00;0.57;;;19.90;59.30;;;;;;6276097;22;45203;-57
2023/10/17 03:55:21;;;;;;;0.85;0.60;;;19.90;59.60;;;;;;6274423;22;45126;-58
2023/10/17 03:57:53;;;;;;;1.00;0.65;;;19.80;59.40;;;;;;6275524;22;45042;-57
2023/10/17 04:00:25;;;;;;;1.58;0.80;;;19.90;59.30;;;;;;6276614;22;45106;-58
2023/10/17 04:02:52;;;;;;;0.63;0.63;;;19.80;59.50;;;;;;6274157;22;46895;-58
2023/10/17 04:05:23;;;;;;;1.23;0.70;;;19.90;59.30;;;;;;6273232;22;45376;-57
2023/10/17 04:07:52;;;;;;;1.50;0.60;;;19.80;59.30;;;;;;6275267;22;45150;-58
2023/10/17 04:10:21;;;;;;;1.27;0.60;;;19.80;58.90;;;;;;6274318;22;45359;-58
2023/10/17 04:13:13;;;;;;;0.50;0.50;;;19.90;58.80;;;;;;6275367;22;47932;-57
2023/10/17 04:15:42;;;;;;;0.85;0.70;;;19.90;58.80;;;;;;6275262;22;45039;-57
2023/10/17 04:18:10;;;;;;;1.00;0.80;;;19.90;59.10;;;;;;6275732;22;45112;-57
2023/10/17 04:20:39;;;;;;;1.00;0.60;;;19.90;59.00;;;;;;6275154;22;45387;-58
2023/10/17 04:23:07;;;;;;;1.08;0.68;;;19.80;58.90;;;;;;6275626;22;45170;-58
2023/10/17 04:25:37;;;;;;;1.73;0.80;;;19.90;59.00;;;;;;6273728;22;45082;-57
2023/10/17 04:28:04;;;;;;;1.35;0.70;;;19.80;59.00;;;;;;6274956;22;45097;-58
2023/10/17 04:30:35;;;;;;;1.13;0.90;;;19.90;59.20;;;;;;6276292;22;44601;-56
2023/10/17 04:33:09;;;;;;;2.05;0.90;;;19.90;58.80;;;;;;6273654;22;45316;-56
2023/10/17 04:35:36;;;;;;;1.02;0.70;;;19.80;58.80;;;;;;6272777;22;45256;-56
2023/10/17 04:38:16;;;;;;;1.73;0.80;;;19.90;58.90;;;;;;6273793;22;45241;-56
2023/10/17 04:40:50;;;;;;;2.25;0.70;;;19.90;59.10;;;;;;6274246;22;45158;-57
2023/10/17 04:46:16;;;;;;;0.63;0.57;;;19.80;59.10;;;;;;6177937;23;45128;-58
2023/10/17 04:48:46;;;;;;;0.52;0.52;;;19.90;59.00;;;;;;6180342;23;45196;-59
2023/10/17 04:51:20;;;;;;;1.48;0.70;;;19.80;59.20;;;;;;6223604;22;45259;-58
2023/10/17 04:53:48;;;;;;;1.48;0.70;;;19.80;59.50;;;;;;6275090;22;45098;-58
2023/10/17 04:56:18;;;;;;;2.30;0.40;;;19.80;59.40;;;;;;6271686;22;45059;-58
2023/10/17 04:58:53;;;;;;;1.35;0.90;;;19.80;57.30;;;;;;6274947;22;44629;-57
2023/10/17 05:04:13;;;;;;;1.48;0.80;;;19.80;53.30;;;;;;6270070;22;46061;-57
2023/10/17 05:07:07;;;;;;;1.30;0.70;;;19.70;51.30;;;;;;6274544;22;45066;-57
2023/10/17 06:18:31;;;;;;;1.92;0.65;;;19.60;56.70;;;;;;6276634;22;44952;-58
2023/10/17 06:21:18;;;;;;;1.40;0.60;;;19.70;57.00;;;;;;6276217;22;48330;-58
2023/10/17 06:26:51;;;;;;;0.65;0.60;;;19.70;57.60;;;;;;6275698;22;45106;-58
2023/10/17 06:32:15;;;;;;;0.65;0.60;;;19.70;57.60;;;;;;6276611;22;45089;-58
2023/10/17 06:34:42;;;;;;;1.02;0.73;;;19.70;57.70;;;;;;6276432;22;44698;-58
2023/10/17 06:37:11;;;;;;;1.27;0.50;;;19.70;58.00;;;;;;6275659;22;45347;-58
2023/10/17 06:39:45;;;;;;;3.15;0.80;;;19.80;58.00;;;;;;6276964;22;45098;-58
2023/10/17 06:42:14;;;;;;;1.83;1.00;;;19.80;58.00;;;;;;6276033;22;45209;-58
2023/10/17 06:44:52;;;;;;;2.53;0.80;;;19.80;57.80;;;;;;6276539;22;45058;-58
2023/10/17 06:47:22;;;;;;;0.60;0.40;;;19.80;57.90;;;;;;6275118;22;45174;-58
2023/10/17 06:53:02;;;;;;;0.90;0.50;;;19.80;57.90;;;;;;5149673;27;45344;-58
2023/10/17 06:55:38;;;;;;;0.60;0.60;;;19.80;58.30;;;;;;5144848;27;45135;-58
2023/10/17 06:58:09;;;;;;;0.63;0.60;;;19.80;58.30;;;;;;5146386;27;45173;-58
2023/10/17 07:00:48;;;;;;;1.58;0.60;;;19.80;58.40;;;;;;5150243;27;45242;-58
2023/10/17 07:03:16;;;;;;;2.80;0.60;;;19.80;58.50;;;;;;5148006;27;45284;-58
2023/10/17 07:05:49;;;;;;;0.88;0.55;;;19.80;58.50;;;;;;5147375;27;45065;-57
2023/10/17 07:08:19;;;;;;;0.82;0.63;;;19.80;58.50;;;;;;5142212;27;45269;-57
2023/10/17 07:10:59;;;;;;;1.15;0.50;;;19.70;59.70;;;;;;5144536;27;45109;-57
2023/10/17 07:13:54;;;;;;;0.93;0.60;;;19.70;58.70;;;;;;5146331;27;45479;-57
2023/10/17 07:16:27;;;;;;;1.10;0.52;;;19.80;58.60;;;;;;5142937;27;45092;-58
2023/10/17 07:18:55;;;;;;;1.00;0.50;;;19.70;58.80;;;;;;5142706;27;45102;-58
2023/10/17 07:21:24;;;;;;;1.63;0.63;;;19.80;58.90;;;;;;5152168;27;45231;-58
2023/10/17 07:23:54;;;;;;;0.93;0.50;;;19.80;59.00;;;;;;5162317;27;48075;-58
2023/10/17 07:26:38;;;;;;;0.82;0.63;;;19.80;59.20;;;;;;5154598;27;45113;-58
2023/10/17 07:29:06;;;;;;;1.02;0.60;;;19.80;59.10;;;;;;5163445;27;45138;-58
2023/10/17 07:31:33;;;;;;;0.50;0.40;;;19.80;58.90;;;;;;5160539;27;45323;-58
2023/10/17 07:34:16;;;;;;;2.22;0.57;;;19.80;58.90;;;;;;5162463;27;46366;-58
2023/10/17 07:36:47;;;;;;;0.95;0.50;;;19.80;59.00;;;;;;5162594;27;45146;-58
2023/10/17 07:39:29;;;;;;;0.57;0.40;;;19.80;58.80;;;;;;5163419;27;44707;-58
2023/10/17 07:41:57;;;;;;;0.88;0.47;;;19.80;58.90;;;;;;5162813;27;45174;-58
2023/10/17 07:44:26;;;;;;;0.95;0.60;;;19.80;58.80;;;;;;5162984;27;45526;-58
2023/10/17 07:47:08;;;;;;;0.82;0.60;;;19.80;58.90;;;;;;5152510;27;45156;-58
2023/10/17 07:49:36;;;;;;;0.73;0.50;;;19.80;58.90;;;;;;5159819;27;45211;-58
2023/10/17 07:52:12;;;;;;;1.40;0.50;;;19.80;59.00;;;;;;5162152;27;45341;-58
2023/10/17 07:54:45;;;;;;;0.50;0.45;;;19.80;58.60;;;;;;5160816;27;48431;-58
2023/10/17 07:57:17;;;;;;;1.63;0.60;;;19.80;58.80;;;;;;5161391;27;45111;-58
2023/10/17 07:59:50;;;;;;;1.95;0.88;;;19.80;58.70;;;;;;5162993;27;45260;-58
2023/10/17 08:02:20;;;;;;;2.63;0.55;;;19.80;59.10;;;;;;5159160;27;45168;-58
2023/10/17 08:04:48;;;;;;;0.52;0.50;;;19.80;59.10;;;;;;5144582;27;46557;-58
2023/10/17 08:07:15;;;;;;;0.75;0.40;;;19.80;59.20;;;;;;5147818;27;45225;-58
2023/10/17 08:09:50;;;;;;;1.08;0.60;;;19.80;59.20;;;;;;5148564;27;45281;-58
2023/10/17 08:12:21;;;;;;;0.68;0.50;;;19.80;59.30;;;;;;5148322;27;44659;-58
2023/10/17 08:14:57;;;;;;;2.35;0.65;;;19.80;59.30;;;;;;5148094;27;46335;-58
2023/10/17 08:17:27;;;;;;;0.75;0.47;;;19.80;59.30;;;;;;5142512;27;45057;-58
2023/10/17 08:20:09;;;;;;;1.05;0.47;;;19.80;59.60;;;;;;5148859;27;45182;-58
2023/10/17 08:22:54;;;;;;;2.95;0.50;;;19.80;59.60;;;;;;5142234;27;45249;-58
2023/10/17 08:25:30;;;;;;;0.50;0.50;;;19.80;59.70;;;;;;5139914;27;47186;-58
2023/10/17 08:27:56;;;;;;;0.70;0.40;;;19.80;60.80;;;;;;5143839;27;45183;-58
2023/10/17 08:30:27;;;;;;;0.40;0.40;;;19.80;59.70;;;;;;5141638;27;45228;-58
2023/10/17 08:33:11;;;;;;;1.17;0.35;;;19.80;59.70;;;;;;5147645;27;45304;-58
2023/10/17 08:35:38;;;;;;;0.80;0.52;;;19.80;59.60;;;;;;5147182;27;48299;-58
2023/10/17 08:38:06;;;;;;;0.73;0.40;;;19.80;59.70;;;;;;5145278;27;45130;-58
2023/10/17 08:40:40;;;;;;;1.42;0.70;;;19.80;59.60;;;;;;5148429;27;45218;-58
2023/10/17 08:43:14;;;;;;;0.30;0.30;;;19.80;59.40;;;;;;5147667;27;45136;-58
2023/10/17 08:45:43;;;;;;;0.85;0.38;;;19.80;59.60;;;;;;5147112;27;46216;-58
2023/10/17 08:48:10;;;;;;;2.00;0.50;;;19.80;59.60;;;;;;5147677;27;45091;-58
2023/10/17 08:50:39;;;;;;;0.50;0.50;;;19.80;59.60;;;;;;5147178;27;44683;-59
2023/10/17 08:53:12;;;;;;;0.60;0.40;;;19.80;59.50;;;;;;5146332;27;45276;-58
2023/10/17 08:55:41;;;;;;;2.70;0.40;;;19.80;59.50;;;;;;5138225;27;45166;-59
2023/10/17 08:58:09;;;;;;;0.57;0.38;;;19.80;59.50;;;;;;5147146;27;45138;-58
2023/10/17 09:00:55;;;;;;;0.57;0.30;;;19.80;59.50;;;;;;5143577;27;45189;-58
2023/10/17 09:03:28;;;;;;;1.00;0.50;;;19.80;59.40;;;;;;5139263;27;45112;-58
2023/10/17 09:06:06;;;;;;;0.68;0.50;;;19.80;59.40;;;;;;5146016;27;46192;-58
2023/10/17 09:08:46;;;;;;;0.98;0.40;;;19.80;59.60;;;;;;5147547;27;45343;-59
2023/10/17 09:11:15;;;;;;;0.93;0.40;;;19.80;59.70;;;;;;5143308;27;44866;-59
2023/10/17 09:16:34;;;;;;;0.60;0.40;;;19.80;59.80;;;;;;5141341;27;45768;-59
2023/10/17 09:19:08;;;;;;;0.80;0.40;;;19.80;59.80;;;;;;5147417;27;45150;-58
2023/10/17 09:21:35;;;;;;;0.80;0.50;;;19.80;59.70;;;;;;5139521;27;45206;-59
2023/10/17 09:24:02;;;;;;;0.50;0.40;;;19.80;59.80;;;;;;5147446;27;44730;-58
2023/10/17 09:26:31;;;;;;;1.02;0.40;;;19.80;59.80;;;;;;5145667;27;46537;-58
2023/10/17 09:29:01;;;;;;;0.77;0.40;;;19.80;59.90;;;;;;5144719;27;44702;-58
2023/10/17 09:31:29;;;;;;;0.80;0.43;;;19.80;59.80;;;;;;5146778;27;45317;-59
2023/10/17 09:34:05;;;;;;;1.35;0.57;;;19.80;59.80;;;;;;5147834;27;45323;-58
2023/10/17 09:36:32;;;;;;;0.73;0.30;;;19.80;59.30;;;;;;5139291;27;47488;-59
2023/10/17 09:39:02;;;;;;;0.50;0.40;;;19.80;59.50;;;;;;5146918;27;44854;-59
2023/10/17 09:41:30;;;;;;;0.30;0.30;;;19.80;59.70;;;;;;5140719;27;45188;-58
2023/10/17 09:43:58;;;;;;;0.98;0.30;;;19.80;59.60;;;;;;5143629;27;45146;-59
2023/10/17 09:46:27;;;;;;;0.90;0.38;;;19.80;59.70;;;;;;5135481;27;48099;-58
2023/10/17 09:48:57;;;;;;;1.88;0.43;;;19.80;59.40;;;;;;5139613;27;45091;-59
2023/10/17 09:51:26;;;;;;;0.40;0.40;;;19.80;59.60;;;;;;5133313;27;45185;-59
2023/10/17 09:53:54;;;;;;;0.50;0.45;;;19.80;59.70;;;;;;5146926;27;45153;-59
2023/10/17 09:56:26;;;;;;;0.35;0.32;;;19.80;59.40;;;;;;5142335;27;46504;-58
2023/10/17 09:59:03;;;;;;;0.32;0.32;;;19.90;59.30;;;;;;5145871;27;45113;-58
2023/10/17 10:01:32;;;;;;;0.63;0.30;;;19.90;59.30;;;;;;5138991;27;45319;-59
2023/10/17 10:04:01;;;;;;;0.60;0.40;;;19.90;59.20;;;;;;5130052;27;45135;-59
2023/10/17 10:06:31;;;;;;;0.32;0.20;;;19.90;59.00;;;;;;5138232;27;45422;-59
2023/10/17 10:09:26;;;;;;;1.10;0.40;;;19.90;58.70;;;;;;5146623;27;45178;-59
2023/10/17 10:12:01;;;;;;;1.88;0.40;;;19.80;58.40;;;;;;5146075;27;45168;-58
2023/10/17 10:14:43;;;;;;;0.32;0.30;;;19.90;58.80;;;;;;5138866;27;45166;-58
2023/10/17 10:17:13;;;;;;;0.40;0.30;;;19.90;58.90;;;;;;5145553;27;45153;-59
2023/10/17 10:19:59;;;;;;;0.60;0.30;;;19.90;58.80;;;;;;5146200;27;45374;-59
2023/10/17 10:22:51;;;;;;;1.45;0.30;;;19.90;58.60;;;;;;5138014;27;45430;-58
2023/10/17 10:25:20;;;;;;;0.22;0.17;;;19.90;58.60;;;;;;5146337;27;44812;-58
2023/10/17 10:27:49;;;;;;;2.45;0.30;;;19.90;58.50;;;;;;5145624;27;48008;-59
2023/10/17 10:30:36;;;;;;;0.45;0.38;;;19.90;58.20;;;;;;5146277;27;45119;-59
2023/10/17 10:33:04;;;;;;;0.20;0.20;;;19.90;58.50;;;;;;5146455;27;44654;-58
2023/10/17 10:35:33;;;;;;;0.30;0.22;;;19.80;59.10;;;;;;5145964;27;45151;-59
2023/10/17 10:37:59;;;;;;;0.50;0.40;;;19.90;59.40;;;;;;5137150;27;45463;-59
2023/10/17 10:40:30;;;;;;;0.47;0.30;;;19.90;59.10;;;;;;5130135;27;45193;-59
2023/10/17 10:42:59;;;;;;;0.38;0.30;;;19.90;59.20;;;;;;5132471;27;45284;-59
2023/10/17 10:45:35;;;;;;;0.40;0.35;;;19.90;59.50;;;;;;5138188;27;45147;-59
2023/10/17 10:48:07;;;;;;;0.98;0.52;;;19.90;59.20;;;;;;5137532;27;46500;-58
2023/10/17 10:50:35;;;;;;;0.30;0.20;;;19.90;59.10;;;;;;5145790;27;45301;-59
2023/10/17 10:53:03;;;;;;;2.42;0.35;;;19.90;59.00;;;;;;5145955;27;45170;-58
2023/10/17 10:55:31;;;;;;;0.47;0.35;;;19.90;58.50;;;;;;5141923;27;45210;-59
2023/10/17 10:58:01;;;;;;;0.95;0.40;;;19.90;58.40;;;;;;5144786;27;48244;-58
2023/10/17 11:00:28;;;;;;;0.80;0.32;;;19.90;58.30;;;;;;5142164;27;45193;-58
2023/10/17 11:02:56;;;;;;;0.75;0.30;;;19.90;58.50;;;;;;5142107;27;45330;-58
2023/10/17 11:05:24;;;;;;;0.22;0.15;;;19.90;58.60;;;;;;5144908;27;44861;-58
2023/10/17 11:08:00;;;;;;;1.05;0.40;;;19.90;58.10;;;;;;5145312;27;46085;-58
2023/10/17 11:10:27;;;;;;;1.30;0.30;;;19.90;58.20;;;;;;5145335;27;45261;-58
2023/10/17 11:12:55;;;;;;;0.30;0.30;;;19.90;58.10;;;;;;5133212;27;45270;-58
2023/10/17 11:15:26;;;;;;;0.45;0.20;;;19.90;59.30;;;;;;5145814;27;45187;-58
2023/10/17 11:18:00;;;;;;;0.50;0.30;;;19.90;58.30;;;;;;5142342;27;45198;-59
2023/10/17 11:20:29;;;;;;;0.30;0.20;;;19.90;58.20;;;;;;5145357;27;45836;-59
2023/10/17 11:22:56;;;;;;;0.60;0.30;;;19.90;58.30;;;;;;5142475;27;45117;-58
2023/10/17 11:25:27;;;;;;;0.57;0.30;;;19.90;57.80;;;;;;5145382;27;45308;-59
2023/10/17 11:27:56;;;;;;;0.20;0.20;;;19.90;57.70;;;;;;5142494;27;45148;-58
2023/10/17 11:30:32;;;;;;;0.38;0.20;;;19.90;57.60;;;;;;5143437;27;45279;-58
2023/10/17 11:33:04;;;;;;;0.15;0.15;;;19.90;57.90;;;;;;5141678;27;44663;-58
2023/10/17 11:35:34;;;;;;;0.45;0.10;;;19.90;57.90;;;;;;5137795;27;45097;-58
2023/10/17 11:38:01;;;;;;;0.77;0.40;;;19.90;58.10;;;;;;5146353;27;45154;-58
2023/10/17 11:40:38;;;;;;;0.82;0.38;;;19.90;57.90;;;;;;5149016;27;45046;-58
2023/10/17 11:43:28;;;;;;;0.20;0.20;;;19.90;57.70;;;;;;5146874;27;45080;-58
2023/10/17 11:45:56;;;;;;;0.70;0.28;;;19.90;58.50;;;;;;5145728;27;45240;-58
2023/10/17 11:48:31;;;;;;;0.63;0.20;;;19.90;59.00;;;;;;5148465;27;47250;-58
2023/10/17 11:51:06;;;;;;;0.30;0.30;;;19.90;59.10;;;;;;5144858;27;45072;-58
2023/10/17 11:53:33;;;;;;;0.30;0.30;;;19.90;58.90;;;;;;5141312;27;45264;-58
2023/10/17 11:56:01;;;;;;;0.30;0.20;;;19.90;58.80;;;;;;5148511;27;45129;-58
2023/10/17 11:58:29;;;;;;;0.77;0.40;;;19.90;59.10;;;;;;5148023;27;45383;-58
2023/10/17 12:00:57;;;;;;;0.35;0.20;;;19.90;59.00;;;;;;5148519;27;45291;-58
2023/10/17 12:03:26;;;;;;;0.52;0.28;;;19.90;58.80;;;;;;5145313;27;45201;-58
2023/10/17 12:05:53;;;;;;;0.15;0.15;;;19.90;59.90;;;;;;5146364;27;45199;-59
2023/10/17 12:08:29;;;;;;;0.22;0.20;;;19.90;58.90;;;;;;5148210;27;47204;-58
2023/10/17 12:10:56;;;;;;;0.38;0.20;;;19.90;58.70;;;;;;5148485;27;45132;-58
2023/10/17 12:13:23;;;;;;;0.32;0.22;;;20.00;58.80;;;;;;5148177;27;45155;-58
2023/10/17 12:15:49;;;;;;;0.43;0.28;;;19.90;58.80;;;;;;5148097;27;45240;-58
2023/10/17 12:18:16;;;;;;;0.30;0.28;;;19.90;59.00;;;;;;5144329;27;46368;-58
2023/10/17 12:20:49;;;;;;;0.55;0.20;;;19.90;58.90;;;;;;5144626;27;45325;-58
2023/10/17 12:23:18;;;;;;;0.68;0.30;;;20.00;59.00;;;;;;5148135;27;45263;-58
2023/10/17 12:25:46;;;;;;;0.60;0.25;;;20.00;59.00;;;;;;5148026;27;45149;-58
2023/10/17 12:28:13;;;;;;;0.28;0.20;;;20.00;58.80;;;;;;5146229;27;46019;-58
2023/10/17 12:30:40;;;;;;;0.77;0.20;;;20.00;59.00;;;;;;5143494;27;45151;-58
2023/10/17 12:33:08;;;;;;;0.20;0.20;;;20.00;59.40;;;;;;5141027;27;45283;-58
2023/10/17 12:35:37;;;;;;;0.30;0.30;;;20.00;59.50;;;;;;5139585;27;45163;-58
2023/10/17 12:38:14;;;;;;;0.20;0.20;;;20.00;59.50;;;;;;5138437;27;45250;-56
2023/10/17 12:40:41;;;;;;;0.57;0.20;;;19.90;59.40;;;;;;5143121;27;45162;-56
2023/10/17 12:43:11;;;;;;;0.40;0.28;;;20.00;59.70;;;;;;5140185;27;45121;-57
2023/10/17 12:45:38;;;;;;;0.17;0.17;;;19.90;59.20;;;;;;5142096;27;44667;-56
2023/10/17 12:48:08;;;;;;;0.93;0.20;;;20.00;59.40;;;;;;5143136;27;45479;-57
2023/10/17 12:50:35;;;;;;;0.45;0.30;;;20.00;59.60;;;;;;5141661;27;45069;-57
2023/10/17 12:53:02;;;;;;;0.28;0.20;;;20.00;59.40;;;;;;5137574;27;44612;-56
2023/10/17 12:55:30;;;;;;;0.32;0.30;;;20.00;58.60;;;;;;5137911;27;45126;-58
2023/10/17 12:57:58;;;;;;;1.42;0.30;;;20.00;58.80;;;;;;5137795;27;45178;-56
2023/10/17 13:00:27;;;;;;;0.20;0.20;;;19.90;58.90;;;;;;5138605;27;45271;-57
2023/10/17 13:02:55;;;;;;;3.30;0.30;;;20.00;58.80;;;;;;5141797;27;45572;-58
2023/10/17 13:05:22;;;;;;;0.10;0.10;;;19.90;58.80;;;;;;5144018;27;45249;-58
2023/10/17 13:07:49;;;;;;;0.38;0.38;;;20.00;59.00;;;;;;5138822;27;45230;-58
2023/10/17 13:10:19;;;;;;;0.88;0.25;;;20.00;59.00;;;;;;5132494;27;45150;-58
2023/10/17 13:12:46;;;;;;;0.40;0.20;;;20.00;59.00;;;;;;5142314;27;45185;-58
2023/10/17 13:15:14;;;;;;;0.43;0.30;;;20.00;59.40;;;;;;5140784;27;45312;-58
2023/10/17 13:17:43;;;;;;;0.30;0.30;;;20.00;59.50;;;;;;5145300;27;45213;-57
2023/10/17 13:20:13;;;;;;;0.47;0.20;;;20.00;59.00;;;;;;5136168;27;45193;-56
2023/10/17 13:22:42;;;;;;;0.20;0.20;;;20.00;59.10;;;;;;5142595;27;45050;-56
2023/10/17 13:25:11;;;;;;;0.30;0.20;;;20.10;59.40;;;;;;5131155;27;45143;-56
2023/10/17 13:27:38;;;;;;;0.45;0.30;;;20.10;59.20;;;;;;5134841;27;45236;-57
2023/10/17 13:30:06;;;;;;;0.30;0.30;;;20.10;59.10;;;;;;5138112;27;44699;-57
2023/10/17 13:32:33;;;;;;;0.90;0.20;;;20.10;59.60;;;;;;5137325;27;45079;-56
2023/10/17 13:35:01;;;;;;;0.32;0.20;;;20.10;59.60;;;;;;5138930;27;44704;-57
2023/10/17 13:37:28;;;;;;;0.85;0.20;;;20.10;59.70;;;;;;5131615;27;45187;-56
2023/10/17 13:39:55;;;;;;;0.45;0.30;;;20.20;59.90;;;;;;5132302;27;45261;-55
2023/10/17 13:42:23;;;;;;;0.82;0.30;;;20.20;59.80;;;;;;5127672;27;45444;-56
2023/10/17 13:44:50;;;;;;;1.10;0.30;;;20.20;59.60;;;;;;5135719;27;45242;-57
2023/10/17 13:47:17;;;;;;;0.30;0.30;;;20.20;59.50;;;;;;5138259;27;45482;-56
2023/10/17 13:49:44;;;;;;;0.40;0.20;;;20.20;59.50;;;;;;5143180;27;45139;-57
2023/10/17 13:52:17;;;;;;;0.98;0.52;;;20.20;59.60;;;;;;5134239;27;44613;-56
2023/10/17 13:54:44;;;;;;;0.82;0.28;;;20.20;59.70;;;;;;5141332;27;45314;-56
2023/10/17 13:57:12;;;;;;;0.50;0.30;;;20.20;59.90;;;;;;5135378;27;46261;-57
2023/10/17 13:59:47;;;;;;;0.90;0.38;;;20.20;60.00;;;;;;5138310;27;45163;-57
2023/10/17 14:02:17;;;;;;;0.68;0.30;;;20.20;59.90;;;;;;5135514;27;44616;-56
2023/10/17 14:04:44;;;;;;;0.30;0.22;;;20.20;59.70;;;;;;5139268;27;44860;-56
2023/10/17 14:07:13;;;;;;;0.17;0.17;;;20.20;60.00;;;;;;5141403;27;46275;-56
2023/10/17 14:09:40;;;;;;;1.08;0.32;;;20.10;60.00;;;;;;5134975;27;45127;-57
2023/10/17 14:12:08;;;;;;;0.30;0.30;;;20.10;59.80;;;;;;5143724;27;44623;-56
2023/10/17 14:14:35;;;;;;;0.38;0.20;;;20.10;60.00;;;;;;5132839;27;44777;-56
2023/10/17 14:17:03;;;;;;;1.15;0.30;;;20.10;59.60;;;;;;5141158;27;46294;-57
2023/10/17 14:19:37;;;;;;;0.32;0.28;;;20.10;61.10;;;;;;5134128;27;45126;-57
2023/10/17 14:22:08;;;;;;;0.43;0.20;;;20.10;60.30;;;;;;5137090;27;45110;-57
2023/10/17 14:25:00;;;;;;;0.68;0.30;;;20.10;60.60;;;;;;5138157;27;44786;-57
2023/10/17 14:27:29;;;;;;;0.47;0.20;;;20.10;60.80;;;;;;5140914;27;45431;-57
2023/10/17 14:29:58;;;;;;;0.43;0.30;;;20.10;60.60;;;;;;5137564;27;45356;-57
2023/10/17 14:32:27;;;;;;;0.60;0.30;;;20.10;60.80;;;;;;5134809;27;45226;-58
2023/10/17 14:34:55;;;;;;;1.85;0.30;;;20.10;61.10;;;;;;5137766;27;45076;-56